createdAt,value
2022-08-11T00:01:05.296Z,6.30
2022-08-11T00:03:43.212Z,4.78
2022-08-11T00:06:14.280Z,7.63
2022-08-11T00:08:42.194Z,8.45
2022-08-11T00:11:12.036Z,7.10
2022-08-11T00:13:45.671Z,7.30
2022-08-11T00:16:22.406Z,11.82
2022-08-11T00:18:54.861Z,6.30
2022-08-11T00:22:02.093Z,4.70
2022-08-11T00:24:11.701Z,9.70
2022-08-11T00:26:38.459Z,7.93
2022-08-11T00:29:10.744Z,12.68
2022-08-11T00:31:38.766Z,6.20
2022-08-11T00:34:11.428Z,7.10
2022-08-11T00:37:00.339Z,5.35
2022-08-11T00:39:29.155Z,8.13
2022-08-11T00:41:58.655Z,5.18
2022-08-11T00:44:47.956Z,8.27
2022-08-11T00:47:33.238Z,8.07
2022-08-11T00:50:14.908Z,4.22
2022-08-11T00:52:54.288Z,5.65
2022-08-11T00:55:55.852Z,8.52
2022-08-11T00:58:50.847Z,4.23
2022-08-11T01:01:17.912Z,5.43
2022-08-11T01:03:47.725Z,7.68
2022-08-11T01:07:06.559Z,5.65
2022-08-11T01:09:49.715Z,12.25
2022-08-11T01:12:45.517Z,5.53
2022-08-11T01:15:40.205Z,8.70
2022-08-11T01:18:38.915Z,6.20
2022-08-11T01:21:35.567Z,5.72
2022-08-11T01:24:39.849Z,7.93
2022-08-11T01:27:34.548Z,4.60
2022-08-11T01:30:44.047Z,8.23
2022-08-11T01:33:59.488Z,7.40
2022-08-11T01:36:46.391Z,5.50
2022-08-11T01:39:36.543Z,4.93
2022-08-11T01:42:40.948Z,5.68
2022-08-11T01:45:21.503Z,7.45
2022-08-11T01:48:07.330Z,9.40
2022-08-11T01:50:43.182Z,4.88
2022-08-11T01:53:40.049Z,5.75
2022-08-11T01:56:25.945Z,5.40
2022-08-11T01:59:18.804Z,8.43
2022-08-11T02:01:50.339Z,7.25
2022-08-11T02:04:24.110Z,9.77
2022-08-11T02:07:02.436Z,9.55
2022-08-11T02:10:35.152Z,6.82
2022-08-11T02:13:36.707Z,7.63
2022-08-11T02:16:13.420Z,7.75
2022-08-11T02:19:05.337Z,5.07
2022-08-11T02:22:09.219Z,5.65
2022-08-11T02:24:49.432Z,6.97
2022-08-11T02:27:23.265Z,7.50
2022-08-11T02:30:04.960Z,8.85
2022-08-11T02:33:16.935Z,6.32
2022-08-11T02:35:58.704Z,5.78
2022-08-11T02:38:32.995Z,5.47
2022-08-11T02:41:53.492Z,5.05
2022-08-11T02:44:56.783Z,5.53
2022-08-11T02:47:39.517Z,8.43
2022-08-11T02:50:22.910Z,6.18
2022-08-11T02:53:03.359Z,5.28
2022-08-11T02:55:57.039Z,5.88
2022-08-11T02:58:43.537Z,5.65
2022-08-11T03:01:25.406Z,5.25
2022-08-11T03:04:03.797Z,5.97
2022-08-11T03:06:50.315Z,5.85
2022-08-11T03:09:45.681Z,6.47
2022-08-11T03:12:42.255Z,7.30
2022-08-11T03:16:06.596Z,5.47
2022-08-11T03:19:08.509Z,6.00
2022-08-11T03:22:03.665Z,8.13
2022-08-11T03:24:54.912Z,7.20
2022-08-11T03:27:48.060Z,9.02
2022-08-11T03:30:19.465Z,5.85
2022-08-11T03:33:11.089Z,7.18
2022-08-11T03:35:49.180Z,5.47
2022-08-11T03:38:20.423Z,7.80
2022-08-11T03:42:04.273Z,5.00
2022-08-11T03:44:36.719Z,5.72
2022-08-11T03:47:36.526Z,7.45
2022-08-11T03:50:40.974Z,7.22
2022-08-11T03:53:29.609Z,5.63
2022-08-11T03:56:19.143Z,6.38
2022-08-11T03:59:25.020Z,5.35
2022-08-11T04:02:16.067Z,6.55
2022-08-11T04:05:07.644Z,9.32
2022-08-11T04:08:06.310Z,5.95
2022-08-11T04:11:11.610Z,8.02
2022-08-11T04:13:58.425Z,6.20
2022-08-11T04:16:46.879Z,8.23
2022-08-11T04:19:34.573Z,4.88
2022-08-11T04:22:51.723Z,4.63
2022-08-11T04:25:31.038Z,6.50
2022-08-11T04:28:29.024Z,4.45
2022-08-11T04:31:50.384Z,4.97
2022-08-11T04:34:44.644Z,6.10
2022-08-11T04:37:34.473Z,5.47
2022-08-11T04:40:35.148Z,4.82
2022-08-11T04:43:31.631Z,8.23
2022-08-11T04:46:23.111Z,9.35
2022-08-11T04:49:46.672Z,9.40
2022-08-11T04:52:57.722Z,8.50
2022-08-11T04:56:15.877Z,9.60
2022-08-11T04:59:20.088Z,9.18
2022-08-11T05:02:24.615Z,7.40
2022-08-11T05:05:33.410Z,8.07
2022-08-11T05:08:02.869Z,6.35
2022-08-11T05:10:39.926Z,9.75
2022-08-11T05:13:30.638Z,6.65
2022-08-11T05:16:26.759Z,8.35
2022-08-11T05:19:16.120Z,8.93
2022-08-11T05:22:10.496Z,10.27
2022-08-11T05:25:04.550Z,10.77
2022-08-11T05:28:16.175Z,7.55
2022-08-11T05:31:02.681Z,9.25
2022-08-11T05:34:06.444Z,8.82
2022-08-11T05:37:11.595Z,8.10
2022-08-11T05:40:08.031Z,9.27
2022-08-11T05:43:01.514Z,11.43
2022-08-11T05:46:02.910Z,14.90
2022-08-11T05:51:52.492Z,13.07
2022-08-11T05:54:46.801Z,11.30
2022-08-11T05:57:45.543Z,10.05
2022-08-11T06:00:11.135Z,11.55
2022-08-11T06:02:43.738Z,9.38
2022-08-11T06:05:12.253Z,8.95
2022-08-11T06:07:47.259Z,11.38
2022-08-11T06:10:37.016Z,11.23
2022-08-11T06:13:06.547Z,8.73
2022-08-11T06:15:43.655Z,10.70
2022-08-11T06:18:12.533Z,13.60
2022-08-11T06:20:49.788Z,14.68
2022-08-11T06:23:19.394Z,13.75
2022-08-11T06:25:47.025Z,10.15
2022-08-11T06:28:20.585Z,11.55
2022-08-11T06:30:48.907Z,11.98
2022-08-11T06:33:19.395Z,13.60
2022-08-11T06:36:04.888Z,14.48
2022-08-11T06:38:37.285Z,12.82
2022-08-11T06:41:31.611Z,12.68
2022-08-11T06:44:12.112Z,14.77
2022-08-11T06:46:51.756Z,17.90
2022-08-11T06:49:41.231Z,9.23
2022-08-11T06:52:34.840Z,13.77
2022-08-11T06:55:57.187Z,12.32
2022-08-11T06:58:44.772Z,13.57
2022-08-11T07:01:14.540Z,13.02
2022-08-11T07:03:48.152Z,16.02
2022-08-11T07:06:29.168Z,10.07
2022-08-11T07:09:59.144Z,13.05
2022-08-11T07:13:01.710Z,11.93
2022-08-11T07:16:12.871Z,10.63
2022-08-11T07:18:52.717Z,11.88
2022-08-11T07:22:00.874Z,18.73
2022-08-11T07:25:01.817Z,17.95
2022-08-11T07:28:02.286Z,18.88
2022-08-11T07:30:30.659Z,16.70
2022-08-11T07:33:00.744Z,15.02
2022-08-11T07:35:53.269Z,10.70
2022-08-11T07:38:25.296Z,10.52
2022-08-11T07:40:52.626Z,11.85
2022-08-11T07:43:19.683Z,13.23
2022-08-11T07:46:20.148Z,10.48
2022-08-11T07:49:05.878Z,18.20
2022-08-11T07:51:51.464Z,12.52
2022-08-11T07:54:19.096Z,13.60
2022-08-11T07:57:07.385Z,11.25
2022-08-11T08:00:00.379Z,11.70
2022-08-11T08:02:50.173Z,9.80
2022-08-11T08:05:37.231Z,13.52
2022-08-11T08:08:23.597Z,12.35
2022-08-11T08:11:09.545Z,13.60
2022-08-11T08:13:56.845Z,9.52
2022-08-11T08:16:42.909Z,11.90
2022-08-11T08:19:14.926Z,12.27
2022-08-11T08:21:45.354Z,14.32
2022-08-11T08:24:13.817Z,13.40
2022-08-11T08:26:58.523Z,12.85
2022-08-11T08:30:03.504Z,17.98
2022-08-11T08:32:31.803Z,10.13
2022-08-11T08:34:59.683Z,8.75
2022-08-11T08:37:45.641Z,8.63
2022-08-11T08:40:14.409Z,13.45
2022-08-11T08:42:51.699Z,8.25
2022-08-11T08:45:20.019Z,10.73
2022-08-11T08:47:53.546Z,10.55
2022-08-11T08:50:27.837Z,8.10
2022-08-11T08:53:06.990Z,13.77
2022-08-11T08:55:34.881Z,11.88
2022-08-11T08:58:02.519Z,6.65
2022-08-11T09:00:41.168Z,9.95
2022-08-11T09:03:38.273Z,9.43
2022-08-11T09:05:56.199Z,7.70
2022-08-11T09:08:24.306Z,13.00
2022-08-11T09:11:14.090Z,6.22
2022-08-11T09:13:45.006Z,13.88
2022-08-11T09:16:12.771Z,8.05
2022-08-11T09:18:43.556Z,7.68
2022-08-11T09:21:14.657Z,8.15
2022-08-11T09:24:37.016Z,7.07
2022-08-11T09:27:08.272Z,6.97
2022-08-11T09:29:37.742Z,10.70
2022-08-11T09:32:07.289Z,7.13
2022-08-11T09:34:37.160Z,6.10
2022-08-11T09:37:28.628Z,11.18
2022-08-11T09:40:32.409Z,7.95
2022-08-11T09:43:21.654Z,9.23
2022-08-11T09:45:52.949Z,10.65
2022-08-11T09:48:21.300Z,8.98
2022-08-11T09:50:50.535Z,8.32
2022-08-11T09:53:36.126Z,5.80
2022-08-11T09:56:44.240Z,9.75
2022-08-11T09:59:11.119Z,6.13
2022-08-11T10:01:42.944Z,9.40
2022-08-11T10:04:15.435Z,6.82
2022-08-11T10:07:04.252Z,7.63
2022-08-11T10:09:46.567Z,6.13
2022-08-11T10:12:26.191Z,7.25
2022-08-11T10:15:34.196Z,7.82
2022-08-11T10:18:22.840Z,10.35
2022-08-11T10:20:52.062Z,8.63
2022-08-11T10:24:01.404Z,11.40
2022-08-11T10:27:06.150Z,6.20
2022-08-11T10:30:09.848Z,4.82
2022-08-11T10:32:58.844Z,9.10
2022-08-11T10:35:28.354Z,8.50
2022-08-11T10:38:08.818Z,6.63
2022-08-11T10:40:40.032Z,10.15
2022-08-11T10:43:13.401Z,11.48
2022-08-11T10:46:03.282Z,12.55
2022-08-11T10:48:34.924Z,6.10
2022-08-11T10:51:14.162Z,10.02
2022-08-11T10:54:05.189Z,7.40
2022-08-11T10:56:55.244Z,9.00
2022-08-11T10:59:23.666Z,4.65
2022-08-11T11:01:53.044Z,13.27
2022-08-11T11:04:58.212Z,9.02
2022-08-11T11:07:37.890Z,6.15
2022-08-11T11:10:11.198Z,6.38
2022-08-11T11:13:05.543Z,7.78
2022-08-11T11:15:54.371Z,6.38
2022-08-11T11:18:22.352Z,5.70
2022-08-11T11:21:11.132Z,4.60
2022-08-11T11:23:47.277Z,6.82
2022-08-11T11:26:27.042Z,4.57
2022-08-11T11:29:16.319Z,7.97
2022-08-11T11:32:17.806Z,6.03
2022-08-11T11:35:06.032Z,5.32
2022-08-11T11:37:36.967Z,6.72
2022-08-11T11:40:16.542Z,6.53
2022-08-11T11:42:45.960Z,5.68
2022-08-11T11:45:16.743Z,5.53
2022-08-11T11:47:53.755Z,5.40
2022-08-11T11:50:32.927Z,7.32
2022-08-11T11:53:01.847Z,5.50
2022-08-11T11:55:29.682Z,10.93
2022-08-11T11:58:18.872Z,4.32
2022-08-11T12:01:06.041Z,5.95
2022-08-11T12:03:34.438Z,5.05
2022-08-11T12:06:02.520Z,4.03
2022-08-11T12:08:29.306Z,4.82
2022-08-11T12:11:23.484Z,3.42
2022-08-11T12:13:53.624Z,4.78
2022-08-11T12:16:33.612Z,9.50
2022-08-11T12:19:05.884Z,7.57
2022-08-11T12:21:35.292Z,5.45
2022-08-11T12:24:21.515Z,7.60
2022-08-11T12:26:54.412Z,4.45
2022-08-11T12:29:36.607Z,4.97
2022-08-11T12:32:08.927Z,6.60
2022-08-11T12:34:37.294Z,5.20
2022-08-11T12:37:13.728Z,7.68
2022-08-11T12:40:42.865Z,5.38
2022-08-11T12:43:24.432Z,5.13
2022-08-11T12:46:12.506Z,6.72
2022-08-11T12:49:21.190Z,10.85
2022-08-11T12:52:11.693Z,5.03
2022-08-11T12:54:59.690Z,8.77
2022-08-11T12:57:57.731Z,4.03
2022-08-11T13:00:44.792Z,4.78
2022-08-11T13:03:32.190Z,5.18
2022-08-11T13:06:02.553Z,7.22
2022-08-11T13:08:33.706Z,6.07
2022-08-11T13:11:20.573Z,4.25
2022-08-11T13:13:54.257Z,6.10
2022-08-11T13:16:54.324Z,7.88
2022-08-11T13:19:22.699Z,8.70
2022-08-11T13:21:51.207Z,4.70
2022-08-11T13:24:19.243Z,5.90
2022-08-11T13:26:50.126Z,8.02
2022-08-11T13:29:23.319Z,5.28
2022-08-11T13:31:52.336Z,6.32
2022-08-11T13:34:21.520Z,6.72
2022-08-11T13:36:54.461Z,4.13
2022-08-11T13:39:30.505Z,6.50
2022-08-11T13:41:59.946Z,5.75
2022-08-11T13:44:30.143Z,5.33
2022-08-11T13:49:36.608Z,5.75
2022-08-11T13:52:12.822Z,4.18
2022-08-11T13:54:41.085Z,7.80
2022-08-11T13:58:05.996Z,5.38
2022-08-11T14:00:09.776Z,4.60
2022-08-11T14:02:45.569Z,7.93
2022-08-11T14:05:16.348Z,3.75
2022-08-11T14:07:55.472Z,3.55
2022-08-11T14:10:26.361Z,4.45
2022-08-11T14:13:19.764Z,6.72
2022-08-11T14:15:49.990Z,5.60
2022-08-11T14:18:22.807Z,6.97
2022-08-11T14:21:12.684Z,8.68
2022-08-11T14:23:42.927Z,12.65
2022-08-11T14:26:27.103Z,6.25
2022-08-11T14:28:59.912Z,6.40
2022-08-11T14:31:29.604Z,4.63
2022-08-11T14:34:02.103Z,10.50
2022-08-11T14:36:35.574Z,9.20
2022-08-11T14:39:12.658Z,10.02
2022-08-11T14:42:29.165Z,6.53
2022-08-11T14:45:23.981Z,4.05
2022-08-11T14:47:54.504Z,6.30
2022-08-11T14:50:23.948Z,9.30
2022-08-11T14:52:58.993Z,5.50
2022-08-11T14:55:47.143Z,4.60
2022-08-11T14:58:17.510Z,9.15
2022-08-11T15:00:44.765Z,6.30
2022-08-11T15:03:14.386Z,6.50
2022-08-11T15:05:52.437Z,5.53
2022-08-11T15:08:46.356Z,5.68
2022-08-11T15:11:34.694Z,5.93
2022-08-11T15:14:04.305Z,4.65
2022-08-11T15:16:50.788Z,8.00
2022-08-11T15:19:21.653Z,7.75
2022-08-11T15:22:08.329Z,8.07
2022-08-11T15:24:36.838Z,7.18
2022-08-11T15:27:30.904Z,4.85
2022-08-11T15:30:30.022Z,3.95
2022-08-11T15:33:23.370Z,9.20
2022-08-11T15:36:10.390Z,4.95
2022-08-11T15:38:42.646Z,4.65
2022-08-11T15:41:29.487Z,4.90
2022-08-11T15:44:16.147Z,4.85
2022-08-11T15:46:49.155Z,5.88
2022-08-11T15:50:11.778Z,4.93
2022-08-11T15:52:18.998Z,5.47
2022-08-11T15:54:47.809Z,4.13
2022-08-11T15:57:39.838Z,8.43
2022-08-11T16:00:26.268Z,6.90
2022-08-11T16:02:54.961Z,6.55
2022-08-11T16:05:45.915Z,5.13
2022-08-11T16:08:13.226Z,7.47
2022-08-11T16:10:44.896Z,4.18
2022-08-11T16:16:07.840Z,7.22
2022-08-11T16:18:53.778Z,6.53
2022-08-11T16:21:33.770Z,7.57
2022-08-11T16:24:06.087Z,10.75
2022-08-11T16:27:11.281Z,4.00
2022-08-11T16:29:23.109Z,9.93
2022-08-11T16:32:11.493Z,5.50
2022-08-11T16:34:58.532Z,6.25
2022-08-11T16:37:44.980Z,4.35
2022-08-11T16:40:13.073Z,7.15
2022-08-11T16:43:04.585Z,6.95
2022-08-11T16:45:59.683Z,10.43
2022-08-11T16:48:35.594Z,7.78
2022-08-11T16:51:06.023Z,5.85
2022-08-11T16:54:00.090Z,11.18
2022-08-11T16:56:30.024Z,9.85
2022-08-11T16:59:17.021Z,6.90
2022-08-11T17:01:54.556Z,7.35
2022-08-11T17:05:10.571Z,5.88
2022-08-11T17:08:01.114Z,6.18
2022-08-11T17:11:03.145Z,4.30
2022-08-11T17:13:48.783Z,4.18
2022-08-11T17:16:22.756Z,7.40
2022-08-11T17:18:56.715Z,6.03
2022-08-11T17:21:33.558Z,4.93
2022-08-11T17:24:06.344Z,10.98
2022-08-11T17:26:59.070Z,5.30
2022-08-11T17:29:53.668Z,7.07
2022-08-11T17:32:57.072Z,6.45
2022-08-11T17:35:33.313Z,16.98
2022-08-11T17:38:08.801Z,11.02
2022-08-11T17:41:23.580Z,9.30
2022-08-11T17:44:11.025Z,4.97
2022-08-11T17:47:00.126Z,5.50
2022-08-11T17:49:37.094Z,8.25
2022-08-11T17:52:24.365Z,8.30
2022-08-11T17:55:11.435Z,8.00
2022-08-11T17:58:00.111Z,5.25
2022-08-11T18:00:27.146Z,3.75
2022-08-11T18:03:14.241Z,6.68
2022-08-11T18:05:45.795Z,7.90
2022-08-11T18:08:32.491Z,7.95
2022-08-11T18:12:06.174Z,5.38
2022-08-11T18:14:27.596Z,6.10
2022-08-11T18:17:13.154Z,7.97
2022-08-11T18:19:58.590Z,5.15
2022-08-11T18:22:48.205Z,8.82
2022-08-11T18:25:45.398Z,5.38
2022-08-11T18:28:33.432Z,5.43
2022-08-11T18:31:21.532Z,10.35
2022-08-11T18:34:16.094Z,2.83
2022-08-11T18:37:24.948Z,5.40
2022-08-11T18:40:18.983Z,7.13
2022-08-11T18:43:06.819Z,8.13
2022-08-11T18:46:06.533Z,7.80
2022-08-11T18:48:56.407Z,7.70
2022-08-11T18:51:44.309Z,6.22
2022-08-11T18:54:32.059Z,5.25
2022-08-11T18:57:22.056Z,7.03
2022-08-11T19:00:09.060Z,5.38
2022-08-11T19:02:57.410Z,5.97
2022-08-11T19:06:35.687Z,2.90
2022-08-11T19:08:58.348Z,6.10
2022-08-11T19:11:45.022Z,7.60
2022-08-11T19:14:35.938Z,9.93
2022-08-11T19:17:43.823Z,10.47
2022-08-11T19:20:32.321Z,7.75
2022-08-11T19:23:20.018Z,10.40
2022-08-11T19:26:06.503Z,10.15
2022-08-11T19:28:53.618Z,6.20
2022-08-11T19:31:44.493Z,10.57
2022-08-11T19:34:37.130Z,9.88
2022-08-11T19:37:25.459Z,23.08
2022-08-11T19:40:25.214Z,22.95
2022-08-11T19:43:16.852Z,27.38
2022-08-11T19:46:11.774Z,19.88
2022-08-11T19:48:58.755Z,23.23
2022-08-11T19:51:44.702Z,16.95
2022-08-11T19:54:31.529Z,14.18
2022-08-11T19:57:18.111Z,6.75
2022-08-11T20:00:04.193Z,11.00
2022-08-11T20:02:49.613Z,7.78
2022-08-11T20:05:36.182Z,11.48
2022-08-11T20:08:24.083Z,12.55
2022-08-11T20:11:10.659Z,6.35
2022-08-11T20:14:00.082Z,5.28
2022-08-11T20:16:45.680Z,10.07
2022-08-11T20:19:56.170Z,6.00
2022-08-11T20:22:37.350Z,7.78
2022-08-11T20:25:24.923Z,6.15
2022-08-11T20:28:11.742Z,5.40
2022-08-11T20:30:57.629Z,8.30
2022-08-11T20:33:43.419Z,6.93
2022-08-11T20:36:30.179Z,6.53
2022-08-11T20:39:17.470Z,8.40
2022-08-11T20:42:04.756Z,9.10
2022-08-11T20:44:51.677Z,8.57
2022-08-11T20:47:59.536Z,8.77
2022-08-11T20:50:46.023Z,10.07
2022-08-11T20:53:35.601Z,7.15
2022-08-11T20:56:28.978Z,9.32
2022-08-11T20:59:21.560Z,9.38
2022-08-11T21:04:57.385Z,5.10
2022-08-11T21:07:55.200Z,6.30
2022-08-11T21:10:51.136Z,6.57
2022-08-11T21:13:40.780Z,8.00
2022-08-11T21:16:28.542Z,6.15
2022-08-11T21:19:59.718Z,7.05
2022-08-11T21:22:35.384Z,7.40
2022-08-11T21:25:21.714Z,4.97
2022-08-11T21:28:09.252Z,5.45
2022-08-11T21:30:57.912Z,6.13
2022-08-11T21:33:46.560Z,6.07
2022-08-11T21:36:33.780Z,6.90
2022-08-11T21:39:24.868Z,10.93
2022-08-11T21:42:12.939Z,5.07
2022-08-11T21:45:00.831Z,5.40
2022-08-11T21:47:46.829Z,9.32
2022-08-11T21:50:32.224Z,5.47
2022-08-11T21:53:18.604Z,7.95
2022-08-11T21:56:04.625Z,13.43
2022-08-11T21:58:50.929Z,5.85
2022-08-11T22:01:37.407Z,10.07
2022-08-11T22:04:24.257Z,9.52
2022-08-11T22:07:10.132Z,8.95
2022-08-11T22:09:56.030Z,6.22
2022-08-11T22:12:44.907Z,8.57
2022-08-11T22:15:31.837Z,10.38
2022-08-11T22:18:19.562Z,10.50
2022-08-11T22:21:05.728Z,12.45
2022-08-11T22:23:56.365Z,6.25
2022-08-11T22:26:42.757Z,6.25
2022-08-11T22:29:38.034Z,7.60
2022-08-11T22:32:37.938Z,7.13
2022-08-11T22:35:24.413Z,10.73
2022-08-11T22:38:15.945Z,8.60
2022-08-11T22:41:01.801Z,7.13
2022-08-11T22:43:47.509Z,11.85
2022-08-11T22:46:35.766Z,8.80
2022-08-11T22:49:21.209Z,4.22
2022-08-11T22:52:07.688Z,7.07
2022-08-11T22:54:53.662Z,13.98
2022-08-11T22:57:40.062Z,10.20
2022-08-11T23:00:25.895Z,10.07
2022-08-11T23:03:37.077Z,10.95
2022-08-11T23:06:23.837Z,7.93
2022-08-11T23:09:10.374Z,8.15
2022-08-11T23:12:07.077Z,7.30
2022-08-11T23:14:57.352Z,8.48
2022-08-11T23:17:43.861Z,9.27
2022-08-11T23:20:34.794Z,7.32
2022-08-11T23:23:26.958Z,6.60
2022-08-11T23:26:13.946Z,8.75
2022-08-11T23:29:04.953Z,12.10
2022-08-11T23:31:53.941Z,12.90
2022-08-11T23:35:04.497Z,10.23
2022-08-11T23:37:49.009Z,9.38
2022-08-11T23:40:34.367Z,12.63
2022-08-11T23:43:20.259Z,11.38
2022-08-11T23:46:05.839Z,9.50
2022-08-11T23:48:52.267Z,4.80
2022-08-11T23:51:41.242Z,8.52
2022-08-11T23:54:28.338Z,9.38
2022-08-11T23:57:14.195Z,10.48
2022-08-11T23:59:59.825Z,6.28
